sensor_id;sensor_type;location;lat;lon;timestamp;P1;durP1;ratioP1;P2;durP2;ratioP2
62006;SDS011;47963;53.008;6.754;2022-10-15T00:00:44;102.45;;;56.25;;
62006;SDS011;47963;53.008;6.754;2022-10-15T00:03:10;82.90;;;52.03;;
62006;SDS011;47963;53.008;6.754;2022-10-15T00:05:39;86.85;;;54.47;;
62006;SDS011;47963;53.008;6.754;2022-10-15T00:08:05;82.28;;;52.47;;
62006;SDS011;47963;53.008;6.754;2022-10-15T00:10:32;92.63;;;53.47;;
62006;SDS011;47963;53.008;6.754;2022-10-15T00:12:59;93.00;;;54.22;;
62006;SDS011;47963;53.008;6.754;2022-10-15T00:15:25;93.95;;;55.67;;
62006;SDS011;47963;53.008;6.754;2022-10-15T00:17:50;102.35;;;56.92;;
62006;SDS011;47963;53.008;6.754;2022-10-15T00:20:16;94.25;;;55.33;;
62006;SDS011;47963;53.008;6.754;2022-10-15T00:22:41;97.03;;;56.10;;
62006;SDS011;47963;53.008;6.754;2022-10-15T00:25:07;92.38;;;53.83;;
62006;SDS011;47963;53.008;6.754;2022-10-15T00:27:34;84.70;;;53.55;;
62006;SDS011;47963;53.008;6.754;2022-10-15T00:30:00;94.53;;;56.28;;
62006;SDS011;47963;53.008;6.754;2022-10-15T00:32:27;100.30;;;56.25;;
62006;SDS011;47963;53.008;6.754;2022-10-15T00:34:54;93.82;;;55.33;;
62006;SDS011;47963;53.008;6.754;2022-10-15T00:37:19;84.30;;;53.42;;
62006;SDS011;47963;53.008;6.754;2022-10-15T00:39:45;90.05;;;54.63;;
62006;SDS011;47963;53.008;6.754;2022-10-15T00:42:11;87.13;;;53.78;;
62006;SDS011;47963;53.008;6.754;2022-10-15T00:44:51;82.90;;;52.35;;
62006;SDS011;47963;53.008;6.754;2022-10-15T00:47:22;83.68;;;51.72;;
62006;SDS011;47963;53.008;6.754;2022-10-15T00:52:21;89.88;;;54.35;;
62006;SDS011;47963;53.008;6.754;2022-10-15T00:54:52;90.90;;;54.15;;
62006;SDS011;47963;53.008;6.754;2022-10-15T00:57:23;82.97;;;53.90;;
62006;SDS011;47963;53.008;6.754;2022-10-15T00:59:50;95.50;;;56.08;;
62006;SDS011;47963;53.008;6.754;2022-10-15T01:02:21;93.63;;;57.33;;
62006;SDS011;47963;53.008;6.754;2022-10-15T01:04:47;103.25;;;59.25;;
62006;SDS011;47963;53.008;6.754;2022-10-15T01:07:13;98.10;;;59.15;;
62006;SDS011;47963;53.008;6.754;2022-10-15T01:09:39;101.07;;;58.50;;
62006;SDS011;47963;53.008;6.754;2022-10-15T01:12:08;93.53;;;55.55;;
62006;SDS011;47963;53.008;6.754;2022-10-15T01:25:53;88.78;;;55.05;;
62006;SDS011;47963;53.008;6.754;2022-10-15T01:28:45;103.35;;;58.13;;
62006;SDS011;47963;53.008;6.754;2022-10-15T01:31:33;88.22;;;55.38;;
62006;SDS011;47963;53.008;6.754;2022-10-15T01:39:53;81.20;;;53.28;;
62006;SDS011;47963;53.008;6.754;2022-10-15T01:42:32;91.50;;;57.00;;
62006;SDS011;47963;53.008;6.754;2022-10-15T01:45:05;94.90;;;59.42;;
62006;SDS011;47963;53.008;6.754;2022-10-15T01:47:43;91.70;;;58.45;;
62006;SDS011;47963;53.008;6.754;2022-10-15T01:50:22;95.18;;;59.28;;
62006;SDS011;47963;53.008;6.754;2022-10-15T01:52:51;89.68;;;59.03;;
62006;SDS011;47963;53.008;6.754;2022-10-15T01:55:19;116.00;;;65.63;;
62006;SDS011;47963;53.008;6.754;2022-10-15T01:57:47;104.90;;;64.80;;
62006;SDS011;47963;53.008;6.754;2022-10-15T02:00:13;113.28;;;65.38;;
62006;SDS011;47963;53.008;6.754;2022-10-15T02:02:40;89.28;;;59.78;;
62006;SDS011;47963;53.008;6.754;2022-10-15T02:05:06;93.43;;;58.50;;
62006;SDS011;47963;53.008;6.754;2022-10-15T02:07:39;102.95;;;65.05;;
62006;SDS011;47963;53.008;6.754;2022-10-15T02:10:16;99.18;;;61.25;;
62006;SDS011;47963;53.008;6.754;2022-10-15T02:12:48;104.60;;;64.35;;
62006;SDS011;47963;53.008;6.754;2022-10-15T02:15:33;93.95;;;60.50;;
62006;SDS011;47963;53.008;6.754;2022-10-15T02:21:01;97.82;;;61.03;;
62006;SDS011;47963;53.008;6.754;2022-10-15T02:26:04;102.15;;;61.85;;
62006;SDS011;47963;53.008;6.754;2022-10-15T02:28:32;98.85;;;61.67;;
62006;SDS011;47963;53.008;6.754;2022-10-15T02:31:00;92.35;;;57.92;;
62006;SDS011;47963;53.008;6.754;2022-10-15T02:33:28;104.90;;;62.05;;
62006;SDS011;47963;53.008;6.754;2022-10-15T02:35:55;93.03;;;59.40;;
62006;SDS011;47963;53.008;6.754;2022-10-15T02:38:23;125.40;;;65.80;;
62006;SDS011;47963;53.008;6.754;2022-10-15T02:40:51;101.55;;;59.35;;
62006;SDS011;47963;53.008;6.754;2022-10-15T02:43:18;83.00;;;55.05;;
62006;SDS011;47963;53.008;6.754;2022-10-15T02:45:45;101.57;;;59.22;;
62006;SDS011;47963;53.008;6.754;2022-10-15T02:48:11;92.88;;;57.20;;
62006;SDS011;47963;53.008;6.754;2022-10-15T02:50:37;90.63;;;55.13;;
62006;SDS011;47963;53.008;6.754;2022-10-15T02:53:03;97.88;;;57.13;;
62006;SDS011;47963;53.008;6.754;2022-10-15T02:55:28;89.38;;;55.53;;
62006;SDS011;47963;53.008;6.754;2022-10-15T02:57:54;98.97;;;57.65;;
62006;SDS011;47963;53.008;6.754;2022-10-15T03:00:20;87.55;;;56.40;;
62006;SDS011;47963;53.008;6.754;2022-10-15T03:02:46;95.05;;;56.50;;
62006;SDS011;47963;53.008;6.754;2022-10-15T03:05:11;88.47;;;55.90;;
62006;SDS011;47963;53.008;6.754;2022-10-15T03:07:37;89.97;;;55.50;;
62006;SDS011;47963;53.008;6.754;2022-10-15T03:10:03;91.82;;;56.00;;
62006;SDS011;47963;53.008;6.754;2022-10-15T03:12:29;89.53;;;55.45;;
62006;SDS011;47963;53.008;6.754;2022-10-15T03:14:54;91.45;;;54.45;;
62006;SDS011;47963;53.008;6.754;2022-10-15T03:17:20;98.00;;;56.22;;
62006;SDS011;47963;53.008;6.754;2022-10-15T03:19:46;95.38;;;55.33;;
62006;SDS011;47963;53.008;6.754;2022-10-15T03:22:11;94.05;;;55.65;;
62006;SDS011;47963;53.008;6.754;2022-10-15T03:24:37;88.97;;;54.15;;
62006;SDS011;47963;53.008;6.754;2022-10-15T03:27:04;93.05;;;53.78;;
62006;SDS011;47963;53.008;6.754;2022-10-15T03:29:30;81.13;;;51.63;;
62006;SDS011;47963;53.008;6.754;2022-10-15T03:31:55;84.80;;;50.60;;
62006;SDS011;47963;53.008;6.754;2022-10-15T03:34:21;92.80;;;53.70;;
62006;SDS011;47963;53.008;6.754;2022-10-15T03:36:46;84.32;;;51.42;;
62006;SDS011;47963;53.008;6.754;2022-10-15T03:39:12;95.22;;;53.42;;
62006;SDS011;47963;53.008;6.754;2022-10-15T03:41:38;82.72;;;50.58;;
62006;SDS011;47963;53.008;6.754;2022-10-15T03:44:05;82.82;;;49.67;;
62006;SDS011;47963;53.008;6.754;2022-10-15T03:46:32;89.72;;;52.17;;
62006;SDS011;47963;53.008;6.754;2022-10-15T03:48:58;85.20;;;52.30;;
62006;SDS011;47963;53.008;6.754;2022-10-15T03:51:24;86.57;;;51.33;;
62006;SDS011;47963;53.008;6.754;2022-10-15T03:53:49;90.88;;;51.83;;
62006;SDS011;47963;53.008;6.754;2022-10-15T03:56:15;87.60;;;51.92;;
62006;SDS011;47963;53.008;6.754;2022-10-15T03:58:41;87.88;;;52.22;;
62006;SDS011;47963;53.008;6.754;2022-10-15T04:01:10;89.97;;;51.25;;
62006;SDS011;47963;53.008;6.754;2022-10-15T04:03:37;85.55;;;52.17;;
62006;SDS011;47963;53.008;6.754;2022-10-15T04:06:04;88.75;;;51.10;;
62006;SDS011;47963;53.008;6.754;2022-10-15T04:08:30;100.10;;;55.22;;
62006;SDS011;47963;53.008;6.754;2022-10-15T04:10:56;98.78;;;53.33;;
62006;SDS011;47963;53.008;6.754;2022-10-15T04:13:23;95.00;;;52.75;;
62006;SDS011;47963;53.008;6.754;2022-10-15T04:15:49;94.68;;;53.08;;
62006;SDS011;47963;53.008;6.754;2022-10-15T04:18:14;95.50;;;54.58;;
62006;SDS011;47963;53.008;6.754;2022-10-15T04:20:40;90.10;;;51.13;;
62006;SDS011;47963;53.008;6.754;2022-10-15T04:23:07;106.30;;;55.67;;
62006;SDS011;47963;53.008;6.754;2022-10-15T04:25:33;101.63;;;54.67;;
62006;SDS011;47963;53.008;6.754;2022-10-15T04:28:00;104.18;;;57.33;;
62006;SDS011;47963;53.008;6.754;2022-10-15T04:30:26;95.10;;;54.88;;
62006;SDS011;47963;53.008;6.754;2022-10-15T04:32:51;100.65;;;56.80;;
62006;SDS011;47963;53.008;6.754;2022-10-15T04:35:17;103.65;;;58.42;;
62006;SDS011;47963;53.008;6.754;2022-10-15T04:37:43;106.47;;;58.25;;
62006;SDS011;47963;53.008;6.754;2022-10-15T04:40:09;113.28;;;60.63;;
62006;SDS011;47963;53.008;6.754;2022-10-15T04:42:36;113.13;;;60.28;;
62006;SDS011;47963;53.008;6.754;2022-10-15T04:45:01;123.05;;;60.90;;
62006;SDS011;47963;53.008;6.754;2022-10-15T04:47:27;115.45;;;61.33;;
62006;SDS011;47963;53.008;6.754;2022-10-15T04:49:53;99.25;;;57.80;;
62006;SDS011;47963;53.008;6.754;2022-10-15T04:52:19;106.65;;;60.05;;
62006;SDS011;47963;53.008;6.754;2022-10-15T04:54:44;106.63;;;59.85;;
62006;SDS011;47963;53.008;6.754;2022-10-15T04:57:10;111.03;;;62.13;;
62006;SDS011;47963;53.008;6.754;2022-10-15T04:59:35;98.22;;;57.47;;
62006;SDS011;47963;53.008;6.754;2022-10-15T05:02:01;99.13;;;57.13;;
62006;SDS011;47963;53.008;6.754;2022-10-15T05:04:27;88.65;;;54.20;;
62006;SDS011;47963;53.008;6.754;2022-10-15T05:06:52;119.18;;;61.95;;
62006;SDS011;47963;53.008;6.754;2022-10-15T05:09:18;118.15;;;63.08;;
62006;SDS011;47963;53.008;6.754;2022-10-15T05:11:43;112.57;;;61.28;;
62006;SDS011;47963;53.008;6.754;2022-10-15T05:14:09;106.07;;;58.90;;
62006;SDS011;47963;53.008;6.754;2022-10-15T05:16:35;122.70;;;65.72;;
62006;SDS011;47963;53.008;6.754;2022-10-15T05:19:02;105.57;;;58.97;;
62006;SDS011;47963;53.008;6.754;2022-10-15T05:21:30;115.35;;;61.45;;
62006;SDS011;47963;53.008;6.754;2022-10-15T05:23:57;133.85;;;66.13;;
62006;SDS011;47963;53.008;6.754;2022-10-15T05:26:23;109.50;;;60.25;;
62006;SDS011;47963;53.008;6.754;2022-10-15T05:28:50;130.75;;;66.85;;
62006;SDS011;47963;53.008;6.754;2022-10-15T05:31:17;143.73;;;69.60;;
62006;SDS011;47963;53.008;6.754;2022-10-15T05:33:48;128.85;;;67.88;;
62006;SDS011;47963;53.008;6.754;2022-10-15T05:36:19;112.43;;;62.40;;
62006;SDS011;47963;53.008;6.754;2022-10-15T05:38:51;123.65;;;67.57;;
62006;SDS011;47963;53.008;6.754;2022-10-15T05:41:22;127.75;;;67.43;;
62006;SDS011;47963;53.008;6.754;2022-10-15T05:43:49;124.57;;;66.88;;
62006;SDS011;47963;53.008;6.754;2022-10-15T05:46:16;145.25;;;71.70;;
62006;SDS011;47963;53.008;6.754;2022-10-15T05:48:42;131.68;;;67.07;;
62006;SDS011;47963;53.008;6.754;2022-10-15T05:51:12;123.63;;;65.45;;
62006;SDS011;47963;53.008;6.754;2022-10-15T05:53:37;117.15;;;66.43;;
62006;SDS011;47963;53.008;6.754;2022-10-15T05:56:04;136.93;;;70.97;;
62006;SDS011;47963;53.008;6.754;2022-10-15T05:58:31;118.63;;;64.45;;
62006;SDS011;47963;53.008;6.754;2022-10-15T06:00:58;133.35;;;67.55;;
62006;SDS011;47963;53.008;6.754;2022-10-15T06:03:25;129.32;;;68.75;;
62006;SDS011;47963;53.008;6.754;2022-10-15T06:05:52;122.53;;;67.90;;
62006;SDS011;47963;53.008;6.754;2022-10-15T06:08:18;144.80;;;71.97;;
62006;SDS011;47963;53.008;6.754;2022-10-15T06:10:44;125.60;;;67.25;;
62006;SDS011;47963;53.008;6.754;2022-10-15T06:13:10;134.00;;;67.28;;
62006;SDS011;47963;53.008;6.754;2022-10-15T06:15:39;130.75;;;68.28;;
62006;SDS011;47963;53.008;6.754;2022-10-15T06:18:06;141.90;;;71.47;;
62006;SDS011;47963;53.008;6.754;2022-10-15T06:20:32;145.65;;;72.22;;
62006;SDS011;47963;53.008;6.754;2022-10-15T06:23:00;133.57;;;69.32;;
62006;SDS011;47963;53.008;6.754;2022-10-15T06:25:27;133.30;;;70.13;;
62006;SDS011;47963;53.008;6.754;2022-10-15T06:27:52;136.07;;;69.65;;
62006;SDS011;47963;53.008;6.754;2022-10-15T06:30:18;123.85;;;68.20;;
62006;SDS011;47963;53.008;6.754;2022-10-15T06:32:53;146.23;;;71.82;;
62006;SDS011;47963;53.008;6.754;2022-10-15T06:35:20;120.80;;;68.90;;
62006;SDS011;47963;53.008;6.754;2022-10-15T06:37:46;156.07;;;72.90;;
62006;SDS011;47963;53.008;6.754;2022-10-15T06:40:12;138.68;;;69.85;;
62006;SDS011;47963;53.008;6.754;2022-10-15T06:42:38;137.73;;;71.40;;
62006;SDS011;47963;53.008;6.754;2022-10-15T06:45:05;143.82;;;73.32;;
62006;SDS011;47963;53.008;6.754;2022-10-15T06:47:32;146.75;;;73.85;;
62006;SDS011;47963;53.008;6.754;2022-10-15T06:49:58;125.30;;;67.13;;
62006;SDS011;47963;53.008;6.754;2022-10-15T06:52:24;132.88;;;70.15;;
62006;SDS011;47963;53.008;6.754;2022-10-15T06:54:50;125.18;;;68.70;;
62006;SDS011;47963;53.008;6.754;2022-10-15T06:57:16;127.50;;;69.72;;
62006;SDS011;47963;53.008;6.754;2022-10-15T06:59:42;141.93;;;70.75;;
62006;SDS011;47963;53.008;6.754;2022-10-15T07:02:08;143.82;;;71.05;;
62006;SDS011;47963;53.008;6.754;2022-10-15T07:04:34;124.28;;;68.47;;
62006;SDS011;47963;53.008;6.754;2022-10-15T07:07:00;123.05;;;67.97;;
62006;SDS011;47963;53.008;6.754;2022-10-15T07:09:25;117.20;;;66.85;;
62006;SDS011;47963;53.008;6.754;2022-10-15T07:11:51;122.30;;;67.78;;
62006;SDS011;47963;53.008;6.754;2022-10-15T07:14:17;115.20;;;65.10;;
62006;SDS011;47963;53.008;6.754;2022-10-15T07:16:43;115.88;;;65.72;;
62006;SDS011;47963;53.008;6.754;2022-10-15T07:19:08;111.15;;;63.20;;
62006;SDS011;47963;53.008;6.754;2022-10-15T07:21:34;138.68;;;68.75;;
62006;SDS011;47963;53.008;6.754;2022-10-15T07:24:00;129.77;;;67.32;;
62006;SDS011;47963;53.008;6.754;2022-10-15T07:26:26;126.35;;;68.20;;
62006;SDS011;47963;53.008;6.754;2022-10-15T07:28:55;125.00;;;67.50;;
62006;SDS011;47963;53.008;6.754;2022-10-15T07:31:21;127.50;;;68.20;;
62006;SDS011;47963;53.008;6.754;2022-10-15T07:33:47;134.98;;;68.97;;
62006;SDS011;47963;53.008;6.754;2022-10-15T07:36:13;119.30;;;64.55;;
62006;SDS011;47963;53.008;6.754;2022-10-15T07:38:39;127.53;;;67.90;;
62006;SDS011;47963;53.008;6.754;2022-10-15T07:41:05;125.10;;;67.65;;
62006;SDS011;47963;53.008;6.754;2022-10-15T07:43:34;122.40;;;64.95;;
62006;SDS011;47963;53.008;6.754;2022-10-15T07:46:00;123.78;;;65.63;;
62006;SDS011;47963;53.008;6.754;2022-10-15T07:48:27;123.82;;;66.43;;
62006;SDS011;47963;53.008;6.754;2022-10-15T07:50:56;120.38;;;66.13;;
62006;SDS011;47963;53.008;6.754;2022-10-15T07:53:29;124.30;;;67.35;;
62006;SDS011;47963;53.008;6.754;2022-10-15T07:55:59;137.18;;;68.18;;
62006;SDS011;47963;53.008;6.754;2022-10-15T07:58:26;116.00;;;65.22;;
62006;SDS011;47963;53.008;6.754;2022-10-15T08:00:54;124.40;;;65.35;;
62006;SDS011;47963;53.008;6.754;2022-10-15T08:03:23;122.40;;;67.28;;
62006;SDS011;47963;53.008;6.754;2022-10-15T08:05:48;121.15;;;67.07;;
62006;SDS011;47963;53.008;6.754;2022-10-15T08:08:17;122.28;;;65.78;;
62006;SDS011;47963;53.008;6.754;2022-10-15T08:10:44;114.05;;;63.30;;
62006;SDS011;47963;53.008;6.754;2022-10-15T08:13:10;124.65;;;65.88;;
62006;SDS011;47963;53.008;6.754;2022-10-15T08:15:37;113.68;;;63.67;;
62006;SDS011;47963;53.008;6.754;2022-10-15T08:18:04;125.18;;;66.95;;
62006;SDS011;47963;53.008;6.754;2022-10-15T08:20:30;100.05;;;58.67;;
62006;SDS011;47963;53.008;6.754;2022-10-15T08:22:55;110.57;;;59.75;;
62006;SDS011;47963;53.008;6.754;2022-10-15T08:25:21;112.65;;;62.10;;
62006;SDS011;47963;53.008;6.754;2022-10-15T08:27:47;106.45;;;62.10;;
62006;SDS011;47963;53.008;6.754;2022-10-15T08:30:12;105.28;;;60.00;;
62006;SDS011;47963;53.008;6.754;2022-10-15T08:32:38;103.65;;;59.75;;
62006;SDS011;47963;53.008;6.754;2022-10-15T08:35:04;107.60;;;60.00;;
62006;SDS011;47963;53.008;6.754;2022-10-15T08:37:30;101.50;;;59.75;;
62006;SDS011;47963;53.008;6.754;2022-10-15T08:39:55;99.28;;;59.80;;
62006;SDS011;47963;53.008;6.754;2022-10-15T08:42:22;97.82;;;59.58;;
62006;SDS011;47963;53.008;6.754;2022-10-15T08:45:02;101.18;;;59.17;;
62006;SDS011;47963;53.008;6.754;2022-10-15T08:47:42;101.07;;;59.50;;
62006;SDS011;47963;53.008;6.754;2022-10-15T08:50:39;89.38;;;55.78;;
62006;SDS011;47963;53.008;6.754;2022-10-15T08:53:10;94.03;;;58.53;;
62006;SDS011;47963;53.008;6.754;2022-10-15T08:55:38;92.22;;;58.22;;
62006;SDS011;47963;53.008;6.754;2022-10-15T08:58:14;92.30;;;58.10;;
62006;SDS011;47963;53.008;6.754;2022-10-15T09:01:03;92.30;;;57.30;;
62006;SDS011;47963;53.008;6.754;2022-10-15T09:06:25;86.78;;;56.65;;
62006;SDS011;47963;53.008;6.754;2022-10-15T09:14:08;83.13;;;56.38;;
62006;SDS011;47963;53.008;6.754;2022-10-15T09:16:37;89.15;;;57.30;;
62006;SDS011;47963;53.008;6.754;2022-10-15T09:19:05;87.50;;;56.17;;
62006;SDS011;47963;53.008;6.754;2022-10-15T09:21:38;93.68;;;60.22;;
62006;SDS011;47963;53.008;6.754;2022-10-15T09:24:05;99.22;;;61.95;;
62006;SDS011;47963;53.008;6.754;2022-10-15T09:26:46;103.95;;;62.08;;
62006;SDS011;47963;53.008;6.754;2022-10-15T09:34:50;100.47;;;62.15;;
62006;SDS011;47963;53.008;6.754;2022-10-15T09:37:28;96.35;;;59.95;;
62006;SDS011;47963;53.008;6.754;2022-10-15T09:42:57;97.10;;;56.58;;
62006;SDS011;47963;53.008;6.754;2022-10-15T09:45:24;91.18;;;53.15;;
62006;SDS011;47963;53.008;6.754;2022-10-15T09:47:50;87.65;;;52.63;;
62006;SDS011;47963;53.008;6.754;2022-10-15T09:50:16;96.95;;;56.05;;
62006;SDS011;47963;53.008;6.754;2022-10-15T09:52:53;98.65;;;56.17;;
62006;SDS011;47963;53.008;6.754;2022-10-15T09:58:25;99.20;;;54.45;;
62006;SDS011;47963;53.008;6.754;2022-10-15T10:03:26;92.15;;;50.67;;
62006;SDS011;47963;53.008;6.754;2022-10-15T10:06:05;86.50;;;47.75;;
62006;SDS011;47963;53.008;6.754;2022-10-15T10:12:16;79.32;;;43.83;;
62006;SDS011;47963;53.008;6.754;2022-10-15T10:14:34;89.28;;;44.60;;
62006;SDS011;47963;53.008;6.754;2022-10-15T10:17:12;79.53;;;43.17;;
62006;SDS011;47963;53.008;6.754;2022-10-15T10:19:40;79.47;;;42.33;;
62006;SDS011;47963;53.008;6.754;2022-10-15T10:22:27;79.82;;;42.90;;
62006;SDS011;47963;53.008;6.754;2022-10-15T10:24:53;72.70;;;40.85;;
62006;SDS011;47963;53.008;6.754;2022-10-15T10:29:47;71.10;;;38.75;;
62006;SDS011;47963;53.008;6.754;2022-10-15T10:32:18;67.72;;;38.47;;
62006;SDS011;47963;53.008;6.754;2022-10-15T10:34:46;73.05;;;40.15;;
62006;SDS011;47963;53.008;6.754;2022-10-15T10:37:12;69.30;;;38.20;;
62006;SDS011;47963;53.008;6.754;2022-10-15T10:39:38;70.05;;;39.63;;
62006;SDS011;47963;53.008;6.754;2022-10-15T10:44:31;66.80;;;38.45;;
62006;SDS011;47963;53.008;6.754;2022-10-15T10:49:36;66.15;;;37.70;;
62006;SDS011;47963;53.008;6.754;2022-10-15T10:54:57;73.45;;;39.22;;
62006;SDS011;47963;53.008;6.754;2022-10-15T10:57:34;72.82;;;40.25;;
62006;SDS011;47963;53.008;6.754;2022-10-15T11:00:33;61.05;;;34.72;;
62006;SDS011;47963;53.008;6.754;2022-10-15T11:03:03;58.75;;;34.78;;
62006;SDS011;47963;53.008;6.754;2022-10-15T11:05:31;59.47;;;35.00;;
62006;SDS011;47963;53.008;6.754;2022-10-15T11:08:08;60.85;;;34.40;;
62006;SDS011;47963;53.008;6.754;2022-10-15T11:10:52;56.22;;;34.10;;
62006;SDS011;47963;53.008;6.754;2022-10-15T11:18:58;51.72;;;32.38;;
62006;SDS011;47963;53.008;6.754;2022-10-15T11:27:10;52.38;;;33.15;;
62006;SDS011;47963;53.008;6.754;2022-10-15T11:30:45;51.97;;;32.97;;
62006;SDS011;47963;53.008;6.754;2022-10-15T11:49:02;50.03;;;32.58;;
62006;SDS011;47963;53.008;6.754;2022-10-15T11:57:02;50.10;;;31.05;;
62006;SDS011;47963;53.008;6.754;2022-10-15T11:59:34;49.28;;;31.75;;
62006;SDS011;47963;53.008;6.754;2022-10-15T12:02:21;44.28;;;30.65;;
62006;SDS011;47963;53.008;6.754;2022-10-15T12:04:59;47.97;;;30.42;;
62006;SDS011;47963;53.008;6.754;2022-10-15T12:07:40;45.03;;;30.47;;
62006;SDS011;47963;53.008;6.754;2022-10-15T12:10:16;41.60;;;28.48;;
62006;SDS011;47963;53.008;6.754;2022-10-15T12:13:07;42.17;;;28.55;;
62006;SDS011;47963;53.008;6.754;2022-10-15T12:18:38;39.42;;;27.27;;
62006;SDS011;47963;53.008;6.754;2022-10-15T12:24:02;42.20;;;27.45;;
62006;SDS011;47963;53.008;6.754;2022-10-15T12:26:31;39.78;;;28.38;;
62006;SDS011;47963;53.008;6.754;2022-10-15T12:29:00;40.47;;;27.33;;
62006;SDS011;47963;53.008;6.754;2022-10-15T12:31:43;42.55;;;27.95;;
62006;SDS011;47963;53.008;6.754;2022-10-15T12:34:31;44.40;;;28.42;;
62006;SDS011;47963;53.008;6.754;2022-10-15T12:37:17;42.92;;;28.40;;
62006;SDS011;47963;53.008;6.754;2022-10-15T12:39:44;41.15;;;27.90;;
62006;SDS011;47963;53.008;6.754;2022-10-15T12:44:51;41.63;;;28.90;;
62006;SDS011;47963;53.008;6.754;2022-10-15T12:50:16;42.22;;;28.60;;
62006;SDS011;47963;53.008;6.754;2022-10-15T12:55:25;44.58;;;29.45;;
62006;SDS011;47963;53.008;6.754;2022-10-15T12:57:52;43.25;;;29.63;;
62006;SDS011;47963;53.008;6.754;2022-10-15T13:02:53;50.67;;;31.20;;
62006;SDS011;47963;53.008;6.754;2022-10-15T13:05:26;44.40;;;30.10;;
62006;SDS011;47963;53.008;6.754;2022-10-15T13:07:55;44.50;;;28.15;;
62006;SDS011;47963;53.008;6.754;2022-10-15T13:10:29;45.30;;;29.63;;
62006;SDS011;47963;53.008;6.754;2022-10-15T13:13:00;47.75;;;30.63;;
62006;SDS011;47963;53.008;6.754;2022-10-15T13:15:29;50.22;;;30.38;;
62006;SDS011;47963;53.008;6.754;2022-10-15T13:17:56;46.35;;;29.90;;
62006;SDS011;47963;53.008;6.754;2022-10-15T13:20:28;50.40;;;30.88;;
62006;SDS011;47963;53.008;6.754;2022-10-15T13:23:06;46.15;;;29.98;;
62006;SDS011;47963;53.008;6.754;2022-10-15T13:25:35;45.20;;;29.70;;
62006;SDS011;47963;53.008;6.754;2022-10-15T13:28:00;49.38;;;31.35;;
62006;SDS011;47963;53.008;6.754;2022-10-15T13:30:26;51.47;;;30.05;;
62006;SDS011;47963;53.008;6.754;2022-10-15T13:32:53;50.05;;;30.25;;
62006;SDS011;47963;53.008;6.754;2022-10-15T13:35:24;47.10;;;29.70;;
62006;SDS011;47963;53.008;6.754;2022-10-15T13:37:53;46.85;;;28.50;;
62006;SDS011;47963;53.008;6.754;2022-10-15T13:40:21;46.33;;;28.58;;
62006;SDS011;47963;53.008;6.754;2022-10-15T13:42:58;49.92;;;28.90;;
62006;SDS011;47963;53.008;6.754;2022-10-15T13:45:25;57.70;;;30.75;;
62006;SDS011;47963;53.008;6.754;2022-10-15T13:47:51;52.92;;;30.25;;
62006;SDS011;47963;53.008;6.754;2022-10-15T13:50:25;47.92;;;28.52;;
62006;SDS011;47963;53.008;6.754;2022-10-15T13:55:21;44.10;;;26.67;;
62006;SDS011;47963;53.008;6.754;2022-10-15T14:00:34;38.70;;;24.45;;
62006;SDS011;47963;53.008;6.754;2022-10-15T14:03:07;42.88;;;25.85;;
62006;SDS011;47963;53.008;6.754;2022-10-15T14:05:47;39.00;;;24.65;;
62006;SDS011;47963;53.008;6.754;2022-10-15T14:08:16;42.60;;;26.38;;
62006;SDS011;47963;53.008;6.754;2022-10-15T14:10:44;43.83;;;27.45;;
62006;SDS011;47963;53.008;6.754;2022-10-15T14:13:11;43.08;;;27.20;;
62006;SDS011;47963;53.008;6.754;2022-10-15T14:18:32;38.97;;;23.15;;
62006;SDS011;47963;53.008;6.754;2022-10-15T14:21:00;43.83;;;24.17;;
62006;SDS011;47963;53.008;6.754;2022-10-15T14:23:27;34.90;;;20.73;;
62006;SDS011;47963;53.008;6.754;2022-10-15T14:26:02;33.60;;;20.45;;
62006;SDS011;47963;53.008;6.754;2022-10-15T14:28:29;31.88;;;19.30;;
62006;SDS011;47963;53.008;6.754;2022-10-15T14:30:58;29.65;;;19.02;;
62006;SDS011;47963;53.008;6.754;2022-10-15T14:33:29;28.38;;;17.77;;
62006;SDS011;47963;53.008;6.754;2022-10-15T14:39:17;28.42;;;17.17;;
62006;SDS011;47963;53.008;6.754;2022-10-15T14:42:24;25.33;;;16.35;;
62006;SDS011;47963;53.008;6.754;2022-10-15T14:44:55;27.77;;;16.88;;
62006;SDS011;47963;53.008;6.754;2022-10-15T14:47:24;28.13;;;16.30;;
62006;SDS011;47963;53.008;6.754;2022-10-15T14:49:54;31.13;;;19.60;;
62006;SDS011;47963;53.008;6.754;2022-10-15T14:52:23;27.17;;;16.20;;
62006;SDS011;47963;53.008;6.754;2022-10-15T14:57:48;29.27;;;17.02;;
62006;SDS011;47963;53.008;6.754;2022-10-15T15:02:43;24.17;;;14.60;;
62006;SDS011;47963;53.008;6.754;2022-10-15T15:07:35;23.33;;;15.63;;
62006;SDS011;47963;53.008;6.754;2022-10-15T15:10:00;21.45;;;14.80;;
62006;SDS011;47963;53.008;6.754;2022-10-15T15:12:27;23.67;;;14.73;;
62006;SDS011;47963;53.008;6.754;2022-10-15T15:14:55;25.70;;;16.10;;
62006;SDS011;47963;53.008;6.754;2022-10-15T15:17:22;21.30;;;13.85;;
62006;SDS011;47963;53.008;6.754;2022-10-15T15:19:50;20.75;;;14.15;;
62006;SDS011;47963;53.008;6.754;2022-10-15T15:22:36;20.75;;;13.93;;
62006;SDS011;47963;53.008;6.754;2022-10-15T15:25:06;23.85;;;15.07;;
62006;SDS011;47963;53.008;6.754;2022-10-15T15:27:38;18.17;;;12.32;;
62006;SDS011;47963;53.008;6.754;2022-10-15T15:30:05;18.63;;;12.52;;
62006;SDS011;47963;53.008;6.754;2022-10-15T15:32:32;19.88;;;12.55;;
62006;SDS011;47963;53.008;6.754;2022-10-15T15:34:58;19.67;;;12.40;;
62006;SDS011;47963;53.008;6.754;2022-10-15T15:37:25;17.90;;;11.75;;
62006;SDS011;47963;53.008;6.754;2022-10-15T15:39:51;24.02;;;14.57;;
62006;SDS011;47963;53.008;6.754;2022-10-15T15:42:20;19.00;;;12.75;;
62006;SDS011;47963;53.008;6.754;2022-10-15T15:44:47;20.48;;;12.88;;
62006;SDS011;47963;53.008;6.754;2022-10-15T15:47:13;17.98;;;11.98;;
62006;SDS011;47963;53.008;6.754;2022-10-15T15:49:39;19.13;;;12.68;;
62006;SDS011;47963;53.008;6.754;2022-10-15T15:52:07;21.10;;;12.48;;
62006;SDS011;47963;53.008;6.754;2022-10-15T15:54:38;18.83;;;11.88;;
62006;SDS011;47963;53.008;6.754;2022-10-15T15:57:07;19.15;;;12.30;;
62006;SDS011;47963;53.008;6.754;2022-10-15T15:59:33;18.00;;;12.15;;
62006;SDS011;47963;53.008;6.754;2022-10-15T16:01:59;20.30;;;12.60;;
62006;SDS011;47963;53.008;6.754;2022-10-15T16:04:25;17.25;;;11.57;;
62006;SDS011;47963;53.008;6.754;2022-10-15T16:06:51;18.92;;;12.85;;
62006;SDS011;47963;53.008;6.754;2022-10-15T16:09:16;19.92;;;13.13;;
62006;SDS011;47963;53.008;6.754;2022-10-15T16:11:43;19.65;;;12.57;;
62006;SDS011;47963;53.008;6.754;2022-10-15T16:14:09;19.13;;;12.48;;
62006;SDS011;47963;53.008;6.754;2022-10-15T16:16:34;18.83;;;12.15;;
62006;SDS011;47963;53.008;6.754;2022-10-15T16:19:00;19.33;;;12.63;;
62006;SDS011;47963;53.008;6.754;2022-10-15T16:21:26;19.05;;;12.57;;
62006;SDS011;47963;53.008;6.754;2022-10-15T16:23:52;19.10;;;12.50;;
62006;SDS011;47963;53.008;6.754;2022-10-15T16:26:18;21.48;;;13.43;;
62006;SDS011;47963;53.008;6.754;2022-10-15T16:28:44;19.08;;;12.18;;
62006;SDS011;47963;53.008;6.754;2022-10-15T16:31:14;19.25;;;12.65;;
62006;SDS011;47963;53.008;6.754;2022-10-15T16:33:42;22.27;;;13.20;;
62006;SDS011;47963;53.008;6.754;2022-10-15T16:36:08;19.88;;;12.98;;